createdAt,value
2022-12-22T00:00:33.792Z,33.47
2022-12-22T00:06:14.561Z,26.50
2022-12-22T00:11:35.825Z,30.70
2022-12-22T00:16:57.945Z,36.67
2022-12-22T00:22:21.880Z,28.52
2022-12-22T00:33:08.471Z,32.37
2022-12-22T00:38:35.534Z,45.25
2022-12-22T00:43:56.509Z,41.15
2022-12-22T00:49:18.836Z,29.48
2022-12-22T00:54:41.870Z,28.85
2022-12-22T01:00:03.293Z,26.10
2022-12-22T01:05:26.267Z,26.83
2022-12-22T01:10:47.294Z,22.10
2022-12-22T01:16:08.415Z,17.42
2022-12-22T01:21:31.623Z,17.50
2022-12-22T01:26:52.646Z,21.43
2022-12-22T01:32:13.984Z,20.23
2022-12-22T01:37:36.328Z,21.83
2022-12-22T01:42:57.252Z,17.38
2022-12-22T01:48:18.330Z,17.27
2022-12-22T01:53:43.897Z,17.40
2022-12-22T01:59:10.000Z,18.95
2022-12-22T02:04:31.180Z,13.18
2022-12-22T02:10:02.872Z,14.80
2022-12-22T02:15:37.706Z,12.63
2022-12-22T02:21:02.174Z,11.30
2022-12-22T02:26:46.208Z,13.38
2022-12-22T02:32:07.287Z,11.33
2022-12-22T02:37:35.349Z,11.75
2022-12-22T02:43:08.357Z,8.43
2022-12-22T02:48:34.399Z,9.98
2022-12-22T02:53:57.981Z,7.15
2022-12-22T02:59:20.508Z,10.40
2022-12-22T03:04:41.560Z,11.30
2022-12-22T03:10:02.696Z,15.45
2022-12-22T03:15:26.550Z,20.17
2022-12-22T03:20:47.499Z,11.75
2022-12-22T03:25:56.740Z,10.95
2022-12-22T03:31:04.861Z,7.65
2022-12-22T03:36:09.728Z,9.32
2022-12-22T03:41:33.154Z,7.32
2022-12-22T03:46:38.015Z,7.70
2022-12-22T03:51:43.985Z,8.35
2022-12-22T03:56:47.873Z,9.25
2022-12-22T04:01:54.825Z,6.95
2022-12-22T04:06:58.463Z,7.68
2022-12-22T04:12:20.062Z,7.00
2022-12-22T04:17:24.900Z,7.72
2022-12-22T04:22:28.365Z,6.97
2022-12-22T04:27:31.894Z,7.60
2022-12-22T04:32:36.848Z,9.35
2022-12-22T04:37:40.384Z,8.32
2022-12-22T04:42:43.816Z,6.50
2022-12-22T04:47:48.629Z,8.02
2022-12-22T04:52:52.297Z,7.60
2022-12-22T04:57:55.665Z,9.75
2022-12-22T05:03:00.526Z,9.20
2022-12-22T05:08:04.412Z,10.18
2022-12-22T05:13:08.143Z,8.32
2022-12-22T05:18:13.316Z,9.70
2022-12-22T05:23:16.706Z,8.82
2022-12-22T05:28:20.169Z,9.32
2022-12-22T05:33:25.225Z,7.63
2022-12-22T05:38:28.945Z,10.38
2022-12-22T05:43:32.568Z,10.18
2022-12-22T05:48:40.061Z,10.20
2022-12-22T05:53:43.962Z,10.68
2022-12-22T05:58:47.689Z,11.35
2022-12-22T06:03:59.483Z,10.32
2022-12-22T06:09:03.679Z,14.03
2022-12-22T06:14:07.674Z,12.77
2022-12-22T06:19:12.469Z,10.00
2022-12-22T06:24:15.977Z,13.30
2022-12-22T06:29:19.480Z,12.27
2022-12-22T06:34:24.447Z,12.20
2022-12-22T06:39:27.883Z,13.23
2022-12-22T06:44:31.691Z,12.35
2022-12-22T06:49:36.473Z,14.52
2022-12-22T06:54:39.857Z,22.83
2022-12-22T06:59:43.614Z,17.27
2022-12-22T07:04:48.441Z,16.95
2022-12-22T07:09:51.771Z,18.02
2022-12-22T07:14:55.942Z,12.13
2022-12-22T07:20:00.742Z,14.07
2022-12-22T07:25:04.199Z,19.50
2022-12-22T07:30:09.047Z,15.60
2022-12-22T07:35:13.808Z,18.63
2022-12-22T07:40:17.831Z,16.35
2022-12-22T07:45:21.555Z,15.85
2022-12-22T07:50:28.061Z,15.45
2022-12-22T07:55:33.249Z,13.30
2022-12-22T08:00:36.665Z,14.63
2022-12-22T08:05:41.434Z,14.90
2022-12-22T08:10:44.878Z,14.88
2022-12-22T08:15:48.381Z,17.42
2022-12-22T08:20:53.483Z,15.45
2022-12-22T08:26:02.057Z,15.98
2022-12-22T08:31:05.962Z,16.67
2022-12-22T08:36:12.465Z,20.95
2022-12-22T08:41:37.060Z,16.52
2022-12-22T08:46:40.563Z,18.10
2022-12-22T08:51:46.158Z,18.95
2022-12-22T08:56:50.613Z,18.17
2022-12-22T09:01:54.168Z,24.23
2022-12-22T09:06:59.013Z,18.90
2022-12-22T09:12:04.185Z,18.27
2022-12-22T09:17:07.838Z,20.08
2022-12-22T09:22:12.711Z,15.95
2022-12-22T09:27:16.142Z,13.40
2022-12-22T09:32:19.866Z,14.68
2022-12-22T09:37:24.693Z,14.75
2022-12-22T09:42:29.669Z,18.80
2022-12-22T09:47:37.441Z,12.23
2022-12-22T09:52:47.469Z,9.93
2022-12-22T09:57:51.413Z,12.02
2022-12-22T10:03:05.225Z,11.90
2022-12-22T10:08:14.700Z,10.73
2022-12-22T10:13:19.872Z,12.30
2022-12-22T10:18:26.573Z,12.20
2022-12-22T10:23:34.403Z,13.77
2022-12-22T10:28:42.654Z,12.57
2022-12-22T10:33:48.049Z,14.07
2022-12-22T10:38:59.624Z,11.48
2022-12-22T10:44:08.127Z,10.88
2022-12-22T10:49:16.399Z,11.65
2022-12-22T10:54:30.894Z,13.20
2022-12-22T10:59:35.703Z,13.77
2022-12-22T11:04:39.234Z,8.05
2022-12-22T11:09:44.494Z,11.13
2022-12-22T11:14:57.299Z,10.25
2022-12-22T11:20:28.843Z,10.40
2022-12-22T11:25:46.657Z,12.55
2022-12-22T11:31:00.618Z,9.77
2022-12-22T11:36:09.664Z,10.82
2022-12-22T11:41:26.169Z,12.43
2022-12-22T11:46:35.909Z,11.75
2022-12-22T11:52:14.726Z,13.65
2022-12-22T11:57:31.613Z,16.08
2022-12-22T12:03:08.374Z,13.07
2022-12-22T12:08:25.013Z,12.38
2022-12-22T12:13:39.830Z,8.95
2022-12-22T12:19:01.546Z,10.35
2022-12-22T12:24:30.663Z,7.45
2022-12-22T12:29:41.792Z,9.02
2022-12-22T12:34:48.594Z,7.25
2022-12-22T12:40:01.095Z,5.88
2022-12-22T12:45:36.103Z,6.83
2022-12-22T12:50:40.092Z,6.75
2022-12-22T12:56:07.096Z,9.32
2022-12-22T13:01:14.307Z,9.02
2022-12-22T13:06:53.371Z,12.77
2022-12-22T13:12:13.829Z,7.90
2022-12-22T13:17:40.701Z,11.07
2022-12-22T13:22:44.983Z,11.82
2022-12-22T13:27:50.061Z,12.02
2022-12-22T13:32:57.992Z,13.60
2022-12-22T13:38:02.023Z,9.63
2022-12-22T13:50:55.234Z,8.38
2022-12-22T13:56:00.564Z,10.23
2022-12-22T14:01:18.202Z,10.35
2022-12-22T14:06:29.944Z,10.75
2022-12-22T14:11:34.727Z,9.68
2022-12-22T14:16:44.365Z,7.95
2022-12-22T14:21:51.998Z,9.35
2022-12-22T14:26:56.967Z,9.55
2022-12-22T14:32:04.401Z,10.52
2022-12-22T14:37:11.534Z,8.55
2022-12-22T14:42:18.583Z,11.10
2022-12-22T14:47:26.473Z,10.30
2022-12-22T14:52:37.717Z,10.23
2022-12-22T14:57:43.909Z,14.82
2022-12-22T15:02:51.648Z,12.05
2022-12-22T15:08:07.304Z,14.82
2022-12-22T15:13:19.927Z,16.00
2022-12-22T15:18:27.007Z,10.90
2022-12-22T15:23:30.482Z,9.68
2022-12-22T15:28:35.318Z,12.13
2022-12-22T15:33:38.929Z,12.20
2022-12-22T15:38:42.715Z,10.57
2022-12-22T15:43:57.943Z,8.55
2022-12-22T15:49:02.881Z,10.93
2022-12-22T15:54:06.491Z,11.02
2022-12-22T15:59:16.163Z,9.60
2022-12-22T16:04:20.448Z,9.73
2022-12-22T16:09:26.008Z,14.45
2022-12-22T16:14:36.863Z,10.48
2022-12-22T16:24:51.257Z,12.82
2022-12-22T16:29:56.799Z,12.25
2022-12-22T16:35:16.320Z,10.57
2022-12-22T16:40:20.576Z,12.27
2022-12-22T16:45:28.066Z,13.23
2022-12-22T16:50:33.348Z,9.70
2022-12-22T16:55:36.776Z,11.40
2022-12-22T17:00:44.751Z,9.45
2022-12-22T17:05:51.447Z,12.30
2022-12-22T17:10:57.918Z,10.10
2022-12-22T17:16:02.680Z,11.18
2022-12-22T17:21:06.342Z,14.88
2022-12-22T17:26:12.710Z,13.90
2022-12-22T17:31:19.271Z,15.50
2022-12-22T17:36:31.692Z,13.18
2022-12-22T17:41:35.212Z,17.30
2022-12-22T17:46:40.567Z,16.13
2022-12-22T17:51:44.212Z,16.45
2022-12-22T17:56:47.747Z,14.07
2022-12-22T18:01:52.933Z,15.88
2022-12-22T18:06:56.751Z,15.20
2022-12-22T18:12:00.287Z,8.07
2022-12-22T18:17:05.110Z,8.35
2022-12-22T18:22:14.886Z,7.40
2022-12-22T18:27:19.131Z,7.50
2022-12-22T18:32:27.908Z,7.55
2022-12-22T18:37:32.256Z,9.02
2022-12-22T18:42:35.756Z,6.65
2022-12-22T18:47:40.513Z,8.55
2022-12-22T18:52:45.198Z,10.82
2022-12-22T18:57:50.500Z,10.40
2022-12-22T19:02:57.957Z,8.00
2022-12-22T19:08:01.666Z,9.00
2022-12-22T19:13:09.088Z,10.82
2022-12-22T19:18:22.658Z,8.23
2022-12-22T19:23:29.536Z,7.25
2022-12-22T19:28:35.404Z,8.30
2022-12-22T19:33:42.218Z,7.05
2022-12-22T19:38:50.547Z,9.85
2022-12-22T19:43:56.498Z,7.50
2022-12-22T19:49:01.437Z,7.78
2022-12-22T19:54:05.275Z,8.73
2022-12-22T19:59:23.651Z,8.32
2022-12-22T20:04:31.032Z,9.70
2022-12-22T20:09:34.435Z,8.60
2022-12-22T20:14:38.125Z,8.00
2022-12-22T20:19:43.135Z,8.05
2022-12-22T20:24:47.568Z,7.38
2022-12-22T20:29:51.063Z,10.45
2022-12-22T20:34:55.980Z,6.05
2022-12-22T20:39:59.432Z,7.13
2022-12-22T20:45:04.749Z,8.45
2022-12-22T20:50:19.848Z,7.65
2022-12-22T20:55:26.390Z,9.13
2022-12-22T21:00:30.277Z,8.38
2022-12-22T21:05:35.211Z,9.57
2022-12-22T21:10:38.726Z,7.10
2022-12-22T21:15:43.431Z,9.07
2022-12-22T21:20:48.475Z,12.43
2022-12-22T21:25:53.783Z,9.30
2022-12-22T21:30:57.333Z,10.48
2022-12-22T21:36:03.174Z,9.52
2022-12-22T21:41:06.675Z,8.93
2022-12-22T21:46:12.751Z,9.68
2022-12-22T21:51:17.663Z,8.43
2022-12-22T21:56:21.287Z,8.43
2022-12-22T22:01:24.783Z,9.50
2022-12-22T22:06:29.695Z,8.52
2022-12-22T22:11:33.226Z,12.30
2022-12-22T22:16:37.269Z,10.65
2022-12-22T22:21:42.063Z,10.75
2022-12-22T22:26:46.320Z,9.82
2022-12-22T22:31:50.049Z,8.50
2022-12-22T22:36:54.898Z,7.93
2022-12-22T22:41:58.298Z,8.40
2022-12-22T22:47:01.837Z,7.68
2022-12-22T22:52:06.732Z,8.48
2022-12-22T22:57:10.311Z,8.88
2022-12-22T23:02:16.116Z,7.75
2022-12-22T23:07:21.179Z,10.20
2022-12-22T23:12:24.627Z,11.82
2022-12-22T23:17:28.023Z,10.90
2022-12-22T23:22:32.813Z,10.88
2022-12-22T23:27:36.298Z,9.10
2022-12-22T23:32:39.687Z,11.25
2022-12-22T23:37:44.491Z,12.48
2022-12-22T23:42:51.726Z,13.65
2022-12-22T23:48:00.533Z,12.57
2022-12-22T23:53:05.617Z,10.27
2022-12-22T23:58:09.835Z,9.80
